Terminal Aerodrome Forecast
Issued by NWS

Home | Current Version | Previous Version | Text Only | Print | Product List | Glossary On
Versions: 1 2 3 4 5 6 7 8 9 10 11 12 13 14 15 16
000
FTUS46 KHNX 060541
TAFMER
TAF
KMER 060541Z 0606/0706 VRB03KT 2SM BR BKN250
      TEMPO 0610/0614 1/2SM FG BKN002
     FM061400 VRB02KT 2SM BR BKN250
     FM061600 VRB03KT 3SM BR SCT200
     FM061900 32007KT 6SM BR SCT200
     FM062100 33009KT P6SM SKC=

USA.gov is the U.S. government's official web portal to all federal, state and local government web resources and services.